Time;durP1;ratioP1;P1;durP2;ratioP2;P2;SDS_P1;SDS_P2;PMS_P1;PMS_P2;Temp;Humidity;BMP_temperature;BMP_pressure;BME280_temperature;BME280_humidity;BME280_pressure;Samples;Min_cycle;Max_cycle;Signal;HPM_P1;HPM_P2
2022/08/07 00:00:35;;;;;;;0.57;0.45;;;18.00;46.40;;;;;;930372;151;27489;-77
2022/08/07 00:03:02;;;;;;;0.40;0.40;;;18.00;46.40;;;;;;929689;151;27386;-77
2022/08/07 00:05:28;;;;;;;0.30;0.30;;;18.00;46.40;;;;;;932743;151;27383;-77
2022/08/07 00:07:55;;;;;;;0.47;0.47;;;18.00;46.50;;;;;;931750;151;27337;-77
2022/08/07 00:10:22;;;;;;;0.87;0.33;;;18.00;46.60;;;;;;932105;151;27309;-77
2022/08/07 00:12:48;;;;;;;0.50;0.50;;;17.90;46.60;;;;;;930496;151;27382;-77
2022/08/07 00:15:15;;;;;;;0.50;0.50;;;17.90;46.70;;;;;;931701;151;27401;-77
2022/08/07 00:17:41;;;;;;;1.13;0.57;;;17.90;46.80;;;;;;930991;151;27387;-77
2022/08/07 00:20:08;;;;;;;0.30;0.20;;;17.90;46.90;;;;;;931601;151;27474;-77
2022/08/07 00:22:34;;;;;;;1.27;0.40;;;17.90;46.90;;;;;;931277;151;27387;-77
2022/08/07 00:25:04;;;;;;;0.70;0.50;;;17.90;47.00;;;;;;932410;151;27415;-77
2022/08/07 00:27:30;;;;;;;0.67;0.37;;;17.90;47.10;;;;;;931086;151;27482;-77
2022/08/07 00:29:57;;;;;;;0.40;0.40;;;17.80;47.10;;;;;;931966;151;27435;-77
2022/08/07 00:32:23;;;;;;;1.17;0.50;;;17.80;47.10;;;;;;931072;151;27363;-77
2022/08/07 00:34:50;;;;;;;1.00;0.67;;;17.80;47.20;;;;;;931604;151;27385;-77
2022/08/07 00:37:17;;;;;;;0.27;0.27;;;17.80;47.30;;;;;;931710;151;27380;-77
2022/08/07 00:39:43;;;;;;;0.40;0.40;;;17.80;47.30;;;;;;931823;151;27360;-77
2022/08/07 00:42:10;;;;;;;0.60;0.43;;;17.70;47.30;;;;;;929592;150;27514;-77
2022/08/07 00:44:36;;;;;;;0.90;0.57;;;17.70;47.30;;;;;;928802;150;27356;-77
2022/08/07 00:47:03;;;;;;;1.57;0.57;;;17.70;47.40;;;;;;928495;150;27383;-77
2022/08/07 00:49:30;;;;;;;0.30;0.30;;;17.60;47.50;;;;;;927823;150;27385;-77
2022/08/07 00:51:56;;;;;;;1.50;0.50;;;17.60;46.90;;;;;;928524;150;27380;-77
2022/08/07 00:54:23;;;;;;;0.40;0.40;;;17.60;47.70;;;;;;928825;150;27524;-77
2022/08/07 00:56:49;;;;;;;0.60;0.60;;;17.50;48.10;;;;;;928587;150;27388;-77
2022/08/07 00:59:16;;;;;;;0.53;0.40;;;17.50;47.80;;;;;;928789;150;27384;-77
2022/08/07 01:01:43;;;;;;;0.67;0.40;;;17.40;47.90;;;;;;929496;148;27287;-77
2022/08/07 01:04:09;;;;;;;0.30;0.30;;;17.40;48.00;;;;;;929573;150;27356;-77
2022/08/07 01:06:36;;;;;;;0.53;0.40;;;17.40;48.10;;;;;;928790;150;27491;-77
2022/08/07 01:09:02;;;;;;;1.07;0.60;;;17.30;48.10;;;;;;928219;150;27797;-77
2022/08/07 01:11:29;;;;;;;0.73;0.43;;;17.30;48.20;;;;;;928692;151;27341;-77
2022/08/07 01:13:55;;;;;;;0.72;0.40;;;17.30;48.30;;;;;;928310;151;27373;-77
2022/08/07 01:16:22;;;;;;;0.47;0.20;;;17.20;48.40;;;;;;928474;150;27416;-77
2022/08/07 01:18:49;;;;;;;0.70;0.70;;;17.20;48.50;;;;;;928061;150;27494;-76
2022/08/07 01:21:15;;;;;;;1.40;0.40;;;17.10;48.50;;;;;;927885;150;27392;-76
2022/08/07 01:23:42;;;;;;;0.67;0.50;;;17.00;48.60;;;;;;928536;150;27441;-76
2022/08/07 01:26:08;;;;;;;0.67;0.30;;;17.00;48.70;;;;;;927863;151;27331;-76
2022/08/07 01:28:35;;;;;;;1.27;0.37;;;16.90;48.80;;;;;;927293;151;27356;-76
2022/08/07 01:31:02;;;;;;;1.60;0.80;;;16.90;48.90;;;;;;928269;150;27773;-76
2022/08/07 01:33:28;;;;;;;0.37;0.30;;;16.80;49.00;;;;;;927608;151;27479;-76
2022/08/07 01:35:55;;;;;;;0.70;0.43;;;16.80;49.10;;;;;;927606;150;27377;-76
2022/08/07 01:38:21;;;;;;;0.73;0.40;;;16.80;49.20;;;;;;927891;150;28178;-76
2022/08/07 01:40:48;;;;;;;0.87;0.50;;;16.70;49.40;;;;;;928969;150;27412;-76
2022/08/07 01:43:14;;;;;;;0.47;0.37;;;16.70;49.40;;;;;;927350;151;27417;-76
2022/08/07 01:45:41;;;;;;;0.50;0.50;;;16.60;49.50;;;;;;927827;150;27399;-76
2022/08/07 01:48:08;;;;;;;1.03;0.40;;;16.60;49.60;;;;;;928037;150;27374;-76
2022/08/07 01:50:37;;;;;;;0.97;0.40;;;16.50;49.60;;;;;;927696;151;27396;-76
2022/08/07 01:53:04;;;;;;;1.27;0.60;;;16.50;49.80;;;;;;926327;150;27457;-76
2022/08/07 01:55:30;;;;;;;0.40;0.40;;;16.50;50.40;;;;;;926142;151;27746;-76
2022/08/07 01:57:57;;;;;;;0.50;0.50;;;16.40;50.00;;;;;;925032;150;27824;-76
2022/08/07 02:00:23;;;;;;;0.63;0.63;;;16.40;50.10;;;;;;927237;151;27390;-76
2022/08/07 02:02:53;;;;;;;0.47;0.47;;;16.30;50.20;;;;;;927669;150;27384;-76
2022/08/07 02:05:25;;;;;;;1.17;0.40;;;16.30;50.40;;;;;;927551;150;27454;-76
2022/08/07 02:07:52;;;;;;;0.47;0.43;;;16.30;50.40;;;;;;927016;150;27355;-76
2022/08/07 02:10:18;;;;;;;0.90;0.40;;;16.20;50.50;;;;;;926375;151;27511;-76
2022/08/07 02:12:45;;;;;;;0.57;0.40;;;16.10;50.60;;;;;;926293;151;27831;-76
2022/08/07 02:15:12;;;;;;;1.03;0.50;;;16.10;50.70;;;;;;928716;150;27372;-76
2022/08/07 02:17:39;;;;;;;0.60;0.60;;;16.00;50.80;;;;;;929612;150;27390;-76
2022/08/07 02:20:05;;;;;;;0.50;0.50;;;16.00;50.90;;;;;;927364;150;27371;-76
2022/08/07 02:22:31;;;;;;;0.80;0.57;;;15.90;51.00;;;;;;927515;149;27389;-76
2022/08/07 02:24:58;;;;;;;1.37;0.67;;;15.90;51.20;;;;;;927654;151;27483;-76
2022/08/07 02:27:25;;;;;;;0.77;0.50;;;15.90;51.20;;;;;;927514;150;27371;-76
2022/08/07 02:29:51;;;;;;;0.93;0.60;;;15.90;51.30;;;;;;928771;150;27379;-76
2022/08/07 02:32:18;;;;;;;0.67;0.50;;;15.80;51.40;;;;;;927515;150;27938;-76
2022/08/07 02:34:44;;;;;;;1.80;0.60;;;15.80;51.50;;;;;;928293;150;27340;-76
2022/08/07 02:37:11;;;;;;;0.80;0.43;;;15.80;51.60;;;;;;928456;150;27395;-77
2022/08/07 02:39:42;;;;;;;0.50;0.50;;;15.70;51.70;;;;;;927366;150;27444;-77
2022/08/07 02:42:06;;;;;;;1.60;0.60;;;15.70;51.90;;;;;;926764;150;27482;-77
2022/08/07 02:44:33;;;;;;;0.47;0.47;;;15.60;51.80;;;;;;937855;149;27437;-77
2022/08/07 02:47:00;;;;;;;0.67;0.67;;;15.60;51.90;;;;;;937739;149;28522;-77
2022/08/07 02:49:26;;;;;;;0.60;0.50;;;15.50;52.00;;;;;;937633;149;27784;-77
2022/08/07 02:51:53;;;;;;;1.53;0.50;;;15.50;52.10;;;;;;937744;149;27343;-77
2022/08/07 02:54:19;;;;;;;0.70;0.70;;;15.50;52.30;;;;;;938492;149;27513;-77
2022/08/07 02:56:46;;;;;;;0.30;0.30;;;15.50;52.20;;;;;;937425;149;27399;-77
2022/08/07 02:59:13;;;;;;;2.30;0.70;;;15.50;52.40;;;;;;938204;149;27504;-77
2022/08/07 03:01:39;;;;;;;0.47;0.47;;;15.40;52.40;;;;;;937287;149;27297;-77
2022/08/07 03:04:06;;;;;;;0.63;0.63;;;15.40;52.50;;;;;;940176;149;27383;-77
2022/08/07 03:06:32;;;;;;;0.70;0.33;;;15.40;52.60;;;;;;941029;147;27377;-77
2022/08/07 03:08:59;;;;;;;0.80;0.50;;;15.30;52.60;;;;;;941364;149;27361;-77
2022/08/07 03:11:26;;;;;;;0.43;0.43;;;15.30;52.70;;;;;;940326;145;27810;-77
2022/08/07 03:13:52;;;;;;;1.43;0.50;;;15.30;52.80;;;;;;937937;149;27898;-77
2022/08/07 03:16:19;;;;;;;0.87;0.63;;;15.30;52.80;;;;;;938356;149;27339;-77
2022/08/07 03:18:45;;;;;;;0.70;0.60;;;15.30;52.90;;;;;;938520;149;27356;-77
2022/08/07 03:21:12;;;;;;;0.40;0.40;;;15.30;53.00;;;;;;938146;149;27337;-77
2022/08/07 03:23:39;;;;;;;0.50;0.50;;;15.20;53.10;;;;;;938406;149;27395;-77
2022/08/07 03:26:05;;;;;;;0.40;0.40;;;15.20;53.10;;;;;;937530;149;27393;-77
2022/08/07 03:28:32;;;;;;;0.40;0.40;;;15.20;53.20;;;;;;936270;150;27831;-77
2022/08/07 03:33:43;;;;;;;1.87;0.87;;;15.20;53.40;;;;;;937857;149;27454;-77
2022/08/07 03:36:10;;;;;;;0.60;0.60;;;15.10;53.20;;;;;;937160;149;27410;-77
2022/08/07 03:38:36;;;;;;;1.67;0.90;;;15.10;53.40;;;;;;937438;150;27484;-77
2022/08/07 03:41:03;;;;;;;0.97;0.60;;;15.10;53.40;;;;;;935891;150;28579;-77
2022/08/07 03:43:29;;;;;;;0.50;0.50;;;15.10;53.60;;;;;;934652;149;27518;-77
2022/08/07 03:45:56;;;;;;;0.53;0.50;;;15.00;53.60;;;;;;927486;150;27347;-77
2022/08/07 03:48:23;;;;;;;0.60;0.60;;;15.00;53.90;;;;;;926312;150;27342;-77
2022/08/07 03:50:49;;;;;;;3.10;0.67;;;15.00;53.90;;;;;;926914;150;27421;-77
2022/08/07 03:53:16;;;;;;;1.03;0.90;;;15.00;54.00;;;;;;926710;150;27380;-77
2022/08/07 03:55:42;;;;;;;0.80;0.70;;;14.90;53.90;;;;;;926895;151;27398;-77
2022/08/07 03:58:09;;;;;;;0.40;0.40;;;14.90;54.00;;;;;;927200;150;27376;-77
2022/08/07 04:00:36;;;;;;;1.27;0.60;;;14.90;54.10;;;;;;927393;151;27450;-77
2022/08/07 04:03:02;;;;;;;1.63;0.70;;;14.90;54.20;;;;;;927398;150;27447;-77
2022/08/07 04:05:29;;;;;;;1.30;0.90;;;14.90;54.30;;;;;;928033;150;28301;-77
2022/08/07 04:07:55;;;;;;;0.83;0.53;;;14.80;54.30;;;;;;926739;150;27419;-77
2022/08/07 04:10:22;;;;;;;0.97;0.70;;;14.80;54.50;;;;;;930472;149;27337;-77
2022/08/07 04:12:48;;;;;;;0.53;0.53;;;14.80;54.50;;;;;;925871;151;27473;-77
2022/08/07 04:15:15;;;;;;;0.47;0.47;;;14.80;54.70;;;;;;926681;151;27356;-77
2022/08/07 04:17:42;;;;;;;0.50;0.50;;;14.80;54.70;;;;;;925796;151;27387;-77
2022/08/07 04:20:08;;;;;;;0.83;0.70;;;14.70;54.70;;;;;;926582;151;27352;-77
2022/08/07 04:22:35;;;;;;;0.30;0.30;;;14.70;54.90;;;;;;924947;151;27388;-77
2022/08/07 04:25:02;;;;;;;1.30;0.40;;;14.70;54.90;;;;;;926627;151;27827;-77
2022/08/07 04:27:28;;;;;;;0.50;0.50;;;14.70;55.00;;;;;;925475;151;27371;-77
2022/08/07 04:29:55;;;;;;;1.33;0.80;;;14.70;54.90;;;;;;926727;151;27503;-77
2022/08/07 04:32:21;;;;;;;0.70;0.70;;;14.70;55.00;;;;;;926067;151;28004;-77
2022/08/07 04:34:49;;;;;;;0.43;0.43;;;14.70;55.10;;;;;;931632;149;27462;-77
2022/08/07 04:37:14;;;;;;;0.70;0.70;;;14.70;55.10;;;;;;931636;149;27462;-77
2022/08/07 04:39:41;;;;;;;1.57;0.60;;;14.80;55.20;;;;;;931641;149;27364;-77
2022/08/07 04:42:08;;;;;;;2.30;0.60;;;14.80;55.30;;;;;;908400;152;27423;-77
2022/08/07 04:44:34;;;;;;;1.33;0.67;;;14.80;55.30;;;;;;909831;153;27514;-76
2022/08/07 04:47:12;;;;;;;1.63;0.50;;;14.80;54.70;;;;;;922711;152;27492;-77
2022/08/07 04:49:45;;;;;;;0.83;0.60;;;14.90;55.40;;;;;;920597;152;27385;-77
2022/08/07 04:52:21;;;;;;;0.50;0.50;;;14.90;55.40;;;;;;937346;149;27365;-77
2022/08/07 04:54:47;;;;;;;0.60;0.60;;;15.00;55.50;;;;;;918577;153;27400;-77
2022/08/07 04:57:16;;;;;;;1.07;0.97;;;15.00;55.40;;;;;;937281;149;27381;-77
2022/08/07 04:59:43;;;;;;;1.07;1.07;;;15.10;55.60;;;;;;938245;149;27353;-76
2022/08/07 05:02:09;;;;;;;1.13;1.10;;;15.10;55.60;;;;;;937448;149;27337;-76
2022/08/07 05:05:03;;;;;;;0.60;0.60;;;15.20;55.80;;;;;;938326;149;27449;-77
2022/08/07 05:07:42;;;;;;;0.40;0.40;;;15.40;56.20;;;;;;916817;152;27939;-76
2022/08/07 05:10:20;;;;;;;0.68;0.68;;;15.70;56.60;;;;;;923065;151;27385;-76
2022/08/07 05:13:02;;;;;;;0.40;0.40;;;16.10;57.20;;;;;;931279;151;27463;-77
2022/08/07 05:15:30;;;;;;;0.47;0.40;;;16.70;57.60;;;;;;937283;149;27357;-77
2022/08/07 05:17:58;;;;;;;0.85;0.40;;;17.30;57.60;;;;;;937453;149;27411;-77
2022/08/07 05:20:25;;;;;;;0.45;0.45;;;18.00;57.50;;;;;;938545;149;27359;-77
2022/08/07 05:22:51;;;;;;;1.32;0.82;;;18.80;57.10;;;;;;936206;150;27668;-77
2022/08/07 05:25:18;;;;;;;0.60;0.60;;;19.60;56.40;;;;;;937312;150;27441;-77
2022/08/07 05:27:44;;;;;;;0.72;0.30;;;20.40;55.60;;;;;;938655;150;27474;-77
2022/08/07 05:30:11;;;;;;;0.40;0.35;;;21.20;54.60;;;;;;927056;152;27470;-77
2022/08/07 05:32:37;;;;;;;0.30;0.30;;;21.90;53.50;;;;;;926400;152;27451;-77
2022/08/07 05:35:04;;;;;;;1.02;0.53;;;22.60;52.50;;;;;;926746;151;27450;-77
2022/08/07 05:37:31;;;;;;;0.42;0.35;;;23.20;51.50;;;;;;925477;152;27326;-77
2022/08/07 05:39:57;;;;;;;0.60;0.60;;;23.80;50.50;;;;;;925802;152;27436;-77
2022/08/07 05:42:24;;;;;;;1.22;0.45;;;24.40;49.70;;;;;;926350;152;27515;-77
2022/08/07 05:44:50;;;;;;;0.55;0.30;;;24.80;48.70;;;;;;925406;152;27445;-77
2022/08/07 05:47:18;;;;;;;0.47;0.40;;;25.30;48.00;;;;;;942062;150;27381;-77
2022/08/07 05:49:44;;;;;;;0.93;0.50;;;25.80;47.50;;;;;;913962;153;27382;-77
2022/08/07 05:52:10;;;;;;;0.33;0.33;;;26.20;46.90;;;;;;914864;151;27402;-77
2022/08/07 05:54:37;;;;;;;1.65;0.62;;;26.60;46.30;;;;;;935252;150;27327;-77
2022/08/07 05:57:03;;;;;;;1.77;0.45;;;27.10;45.90;;;;;;934748;151;27350;-77
2022/08/07 05:59:30;;;;;;;0.78;0.20;;;27.50;45.10;;;;;;942813;150;27788;-77
2022/08/07 06:01:57;;;;;;;0.60;0.40;;;27.80;44.30;;;;;;918518;153;27394;-78
2022/08/07 06:04:23;;;;;;;0.60;0.40;;;28.20;43.80;;;;;;934138;150;27360;-78
2022/08/07 06:06:50;;;;;;;0.40;0.40;;;28.50;43.20;;;;;;911354;154;27477;-78
2022/08/07 06:09:16;;;;;;;0.65;0.30;;;28.80;42.80;;;;;;934568;150;27308;-78
2022/08/07 06:11:43;;;;;;;1.20;0.40;;;29.10;42.20;;;;;;917984;153;27486;-78
2022/08/07 06:14:10;;;;;;;0.55;0.25;;;29.40;41.80;;;;;;919501;152;27395;-78
2022/08/07 06:16:36;;;;;;;0.60;0.50;;;29.70;41.60;;;;;;932493;151;27351;-78
2022/08/07 06:19:03;;;;;;;0.30;0.30;;;30.10;41.30;;;;;;932367;150;27347;-78
2022/08/07 06:21:29;;;;;;;0.28;0.20;;;30.40;40.90;;;;;;933724;150;27346;-78
2022/08/07 06:23:57;;;;;;;0.30;0.30;;;30.80;40.70;;;;;;933443;150;27315;-78
2022/08/07 06:26:22;;;;;;;1.00;0.30;;;31.30;40.30;;;;;;933476;150;27354;-78
2022/08/07 06:28:49;;;;;;;0.70;0.35;;;31.70;39.60;;;;;;934659;150;27338;-78
2022/08/07 06:31:16;;;;;;;1.07;0.37;;;32.10;39.30;;;;;;933857;150;27346;-78
2022/08/07 06:33:42;;;;;;;0.20;0.20;;;32.50;38.60;;;;;;913332;154;27367;-78
2022/08/07 06:36:09;;;;;;;0.35;0.35;;;33.00;38.00;;;;;;918442;153;27830;-78
2022/08/07 06:38:35;;;;;;;1.10;0.20;;;33.30;37.40;;;;;;917892;152;27506;-78
2022/08/07 06:41:02;;;;;;;0.57;0.57;;;33.60;36.80;;;;;;913282;152;27565;-78
2022/08/07 06:43:33;;;;;;;0.50;0.30;;;33.90;36.30;;;;;;912207;154;27402;-78
2022/08/07 06:45:55;;;;;;;0.70;0.50;;;34.20;36.10;;;;;;937408;148;27382;-78
2022/08/07 06:48:22;;;;;;;1.17;0.30;;;34.50;36.00;;;;;;945324;148;27330;-79
2022/08/07 06:50:48;;;;;;;0.70;0.33;;;34.90;35.80;;;;;;945221;148;27447;-79
2022/08/07 06:53:15;;;;;;;2.50;0.50;;;35.30;35.40;;;;;;928089;151;26304;-79
2022/08/07 06:55:42;;;;;;;0.35;0.35;;;35.70;34.70;;;;;;922502;151;26363;-79
2022/08/07 06:58:09;;;;;;;1.25;0.40;;;36.00;34.30;;;;;;927725;151;26689;-79
2022/08/07 07:00:35;;;;;;;0.30;0.28;;;36.40;33.90;;;;;;929945;151;26251;-79
2022/08/07 07:03:01;;;;;;;0.40;0.40;;;36.70;33.60;;;;;;923582;151;26370;-79
2022/08/07 07:05:28;;;;;;;0.40;0.30;;;37.10;33.20;;;;;;923684;150;27249;-79
2022/08/07 07:07:55;;;;;;;0.37;0.37;;;37.40;32.60;;;;;;928664;151;26393;-79
2022/08/07 07:10:27;;;;;;;0.30;0.30;;;37.70;31.50;;;;;;930003;151;26349;-79
2022/08/07 07:12:54;;;;;;;0.30;0.30;;;37.90;30.80;;;;;;951756;148;26264;-79
2022/08/07 07:15:20;;;;;;;0.50;0.30;;;38.00;30.50;;;;;;952034;148;27391;-79
2022/08/07 07:18:14;;;;;;;0.20;0.20;;;38.10;30.60;;;;;;945748;148;26347;-79
2022/08/07 07:20:53;;;;;;;0.10;0.10;;;38.10;30.60;;;;;;944301;148;26273;-79
2022/08/07 07:23:19;;;;;;;0.35;0.35;;;38.30;30.60;;;;;;927025;151;26314;-79
2022/08/07 07:25:46;;;;;;;0.68;0.28;;;38.60;30.10;;;;;;928015;151;26353;-79
2022/08/07 07:28:13;;;;;;;0.20;0.20;;;38.80;30.00;;;;;;927596;151;26357;-79
2022/08/07 07:30:39;;;;;;;0.90;0.37;;;39.20;29.80;;;;;;944667;148;26256;-79
2022/08/07 07:33:06;;;;;;;0.88;0.45;;;39.50;29.50;;;;;;922783;152;26368;-79
2022/08/07 07:35:32;;;;;;;0.95;0.30;;;39.70;29.20;;;;;;950271;148;26254;-79
2022/08/07 07:37:59;;;;;;;1.75;0.45;;;40.00;29.00;;;;;;945086;148;28406;-79
2022/08/07 07:40:26;;;;;;;0.10;0.10;;;40.30;28.80;;;;;;925640;151;26323;-79
2022/08/07 07:42:52;;;;;;;0.70;0.30;;;40.60;28.60;;;;;;928389;151;26397;-79
2022/08/07 07:45:19;;;;;;;0.35;0.30;;;40.90;28.50;;;;;;945520;148;26406;-79
2022/08/07 07:47:45;;;;;;;0.40;0.30;;;41.20;28.20;;;;;;928123;151;26333;-79
2022/08/07 07:50:12;;;;;;;0.28;0.28;;;41.60;27.40;;;;;;930026;151;26296;-79
2022/08/07 07:52:39;;;;;;;0.65;0.30;;;41.90;27.60;;;;;;929872;151;26341;-79
2022/08/07 07:55:05;;;;;;;0.15;0.15;;;42.20;27.40;;;;;;954398;148;26291;-79
2022/08/07 07:57:32;;;;;;;1.17;0.62;;;42.40;27.00;;;;;;930361;151;26353;-80
2022/08/07 07:59:59;;;;;;;0.57;0.33;;;42.60;26.80;;;;;;926249;151;26397;-80
2022/08/07 08:02:25;;;;;;;0.30;0.30;;;42.90;26.70;;;;;;921790;151;26925;-80
2022/08/07 08:04:52;;;;;;;0.50;0.25;;;43.20;26.50;;;;;;920740;151;26261;-80
2022/08/07 08:07:18;;;;;;;0.57;0.37;;;43.50;26.30;;;;;;945122;148;26346;-80
2022/08/07 08:09:46;;;;;;;2.00;0.30;;;43.80;26.10;;;;;;924189;151;26374;-79
2022/08/07 08:12:12;;;;;;;0.65;0.20;;;44.10;25.70;;;;;;928796;151;26280;-79
2022/08/07 08:14:38;;;;;;;0.35;0.20;;;44.30;25.40;;;;;;928893;151;26637;-79
2022/08/07 08:17:05;;;;;;;0.20;0.20;;;44.50;25.30;;;;;;929752;151;26508;-80
2022/08/07 08:19:31;;;;;;;0.60;0.20;;;44.70;25.10;;;;;;932889;150;26268;-80
2022/08/07 08:27:27;;;;;;;0.25;0.25;;;45.30;24.60;;;;;;953169;148;26292;-80
2022/08/07 08:29:56;;;;;;;0.47;0.13;;;45.60;24.50;;;;;;929840;151;29343;-80
2022/08/07 08:32:25;;;;;;;0.20;0.20;;;46.00;24.40;;;;;;926970;151;27059;-80
2022/08/07 08:34:52;;;;;;;0.57;0.28;;;46.30;24.10;;;;;;924330;151;26584;-80
2022/08/07 08:37:19;;;;;;;0.20;0.20;;;46.50;23.80;;;;;;929691;151;26291;-80
2022/08/07 08:39:45;;;;;;;0.33;0.28;;;46.80;23.50;;;;;;944750;148;26281;-80
2022/08/07 08:42:24;;;;;;;0.23;0.23;;;47.00;23.20;;;;;;925813;151;26401;-80
2022/08/07 08:44:54;;;;;;;1.02;0.30;;;47.10;23.00;;;;;;946964;148;26240;-80
2022/08/07 08:47:26;;;;;;;0.55;0.40;;;47.20;22.70;;;;;;917635;151;26321;-80
2022/08/07 08:50:01;;;;;;;0.75;0.40;;;47.20;22.50;;;;;;930131;149;26263;-80
2022/08/07 08:52:28;;;;;;;0.45;0.30;;;47.00;22.20;;;;;;905749;152;26436;-80
2022/08/07 08:55:25;;;;;;;1.05;0.37;;;46.80;22.10;;;;;;926069;151;26337;-80
2022/08/07 08:58:10;;;;;;;0.20;0.10;;;46.60;22.10;;;;;;912722;153;26364;-80
2022/08/07 09:00:36;;;;;;;0.20;0.20;;;46.30;22.10;;;;;;923755;151;26291;-80
2022/08/07 09:03:03;;;;;;;0.30;0.30;;;46.10;22.30;;;;;;924555;151;26283;-80
2022/08/07 09:05:47;;;;;;;0.75;0.30;;;45.90;22.10;;;;;;926087;151;26844;-80
2022/08/07 09:08:35;;;;;;;0.47;0.20;;;45.80;22.30;;;;;;925451;151;26294;-80
2022/08/07 09:11:05;;;;;;;0.20;0.10;;;45.80;22.40;;;;;;926561;151;26297;-80
2022/08/07 09:13:52;;;;;;;0.40;0.30;;;45.80;22.50;;;;;;927629;151;26396;-80
2022/08/07 09:16:40;;;;;;;0.20;0.20;;;46.00;22.30;;;;;;928980;151;26533;-80
2022/08/07 09:19:30;;;;;;;0.40;0.30;;;46.00;22.30;;;;;;930822;145;26246;-80
2022/08/07 09:21:57;;;;;;;0.70;0.50;;;46.20;22.20;;;;;;927023;151;26303;-80
2022/08/07 09:24:29;;;;;;;0.40;0.25;;;46.30;22.00;;;;;;915932;151;26433;-80
2022/08/07 09:27:09;;;;;;;0.23;0.23;;;46.40;21.90;;;;;;927037;151;26340;-80
2022/08/07 09:30:02;;;;;;;0.30;0.30;;;46.40;21.70;;;;;;925699;152;26297;-80
2022/08/07 09:32:47;;;;;;;0.37;0.37;;;46.50;21.70;;;;;;926190;151;26385;-80
2022/08/07 09:35:14;;;;;;;0.60;0.40;;;46.60;21.50;;;;;;927275;151;26273;-80
2022/08/07 09:37:43;;;;;;;1.85;0.47;;;46.50;21.30;;;;;;925779;151;26283;-80
2022/08/07 09:40:28;;;;;;;0.50;0.40;;;46.40;21.20;;;;;;925375;151;26335;-80
2022/08/07 09:43:03;;;;;;;0.23;0.23;;;46.20;21.00;;;;;;925621;151;26390;-80
2022/08/07 09:45:42;;;;;;;0.42;0.20;;;46.00;21.10;;;;;;925167;151;26354;-79
2022/08/07 09:48:27;;;;;;;1.22;0.40;;;45.70;20.90;;;;;;923854;152;26347;-80
2022/08/07 09:51:12;;;;;;;0.35;0.35;;;45.40;21.00;;;;;;922918;152;26279;-80
2022/08/07 09:53:41;;;;;;;0.60;0.35;;;45.10;21.10;;;;;;923157;152;26302;-79
2022/08/07 09:56:29;;;;;;;0.37;0.30;;;44.80;21.20;;;;;;932290;150;26259;-80
2022/08/07 09:59:05;;;;;;;0.60;0.25;;;44.60;21.10;;;;;;933003;150;26268;-80
2022/08/07 10:01:50;;;;;;;1.15;0.40;;;44.30;21.10;;;;;;933076;150;26213;-80
2022/08/07 10:04:43;;;;;;;0.40;0.30;;;44.00;21.20;;;;;;935445;151;27643;-80
2022/08/07 10:07:26;;;;;;;0.70;0.40;;;43.60;21.20;;;;;;932667;151;26249;-80
2022/08/07 10:10:18;;;;;;;0.20;0.20;;;43.20;21.20;;;;;;933324;150;26258;-80
2022/08/07 10:13:03;;;;;;;0.40;0.30;;;42.70;21.10;;;;;;934238;151;26268;-79
2022/08/07 10:15:48;;;;;;;0.50;0.30;;;42.20;21.10;;;;;;935992;150;26337;-80
2022/08/07 10:18:15;;;;;;;2.40;0.55;;;41.60;21.10;;;;;;933718;150;26220;-80
2022/08/07 10:20:51;;;;;;;0.53;0.53;;;41.00;21.20;;;;;;934258;150;27382;-80
2022/08/07 10:23:48;;;;;;;0.37;0.37;;;40.40;21.40;;;;;;932577;151;26237;-79
2022/08/07 10:26:26;;;;;;;0.23;0.23;;;39.80;21.60;;;;;;943097;150;27376;-79
2022/08/07 10:29:17;;;;;;;0.20;0.20;;;39.20;21.70;;;;;;913087;153;27744;-80
2022/08/07 10:32:07;;;;;;;0.60;0.30;;;38.60;21.90;;;;;;933968;150;27444;-80
2022/08/07 10:35:01;;;;;;;0.20;0.20;;;37.90;21.90;;;;;;932355;150;27369;-79
2022/08/07 10:37:55;;;;;;;0.40;0.40;;;37.20;22.20;;;;;;934508;151;28006;-79
2022/08/07 10:40:22;;;;;;;1.32;0.50;;;36.60;22.50;;;;;;933625;151;27386;-79
2022/08/07 10:42:55;;;;;;;0.30;0.30;;;36.00;22.80;;;;;;931635;151;27358;-79
2022/08/07 10:45:22;;;;;;;0.62;0.42;;;35.60;23.10;;;;;;935079;150;27371;-79
2022/08/07 10:48:06;;;;;;;0.53;0.33;;;35.10;23.30;;;;;;927778;148;27365;-79
2022/08/07 10:50:44;;;;;;;0.40;0.40;;;34.60;23.60;;;;;;946035;148;27346;-79
2022/08/07 10:53:36;;;;;;;1.00;0.40;;;34.10;23.90;;;;;;946405;148;27373;-79
2022/08/07 10:56:03;;;;;;;0.30;0.30;;;33.70;24.10;;;;;;944749;148;27376;-79
2022/08/07 10:58:51;;;;;;;0.55;0.30;;;33.40;24.40;;;;;;951172;148;27466;-78
2022/08/07 11:01:20;;;;;;;0.40;0.33;;;33.00;24.60;;;;;;945262;148;27354;-79
2022/08/07 11:03:56;;;;;;;0.53;0.20;;;32.70;24.80;;;;;;922580;152;27820;-79
2022/08/07 11:06:28;;;;;;;0.37;0.30;;;32.50;25.00;;;;;;943747;148;27374;-79
2022/08/07 11:09:06;;;;;;;0.33;0.20;;;32.30;25.20;;;;;;943707;149;27366;-79
2022/08/07 11:11:39;;;;;;;1.22;0.40;;;32.10;25.40;;;;;;942629;148;27793;-79
2022/08/07 11:14:20;;;;;;;0.75;0.75;;;31.90;25.50;;;;;;943982;149;27389;-79
2022/08/07 11:16:56;;;;;;;0.78;0.47;;;31.80;25.60;;;;;;914312;153;27404;-79
2022/08/07 11:19:50;;;;;;;0.35;0.30;;;31.70;25.80;;;;;;923716;149;27380;-79
2022/08/07 11:22:22;;;;;;;1.52;0.35;;;31.70;26.00;;;;;;945316;149;27359;-79
2022/08/07 11:24:49;;;;;;;0.28;0.28;;;31.60;26.20;;;;;;945119;149;27343;-79
2022/08/07 11:27:40;;;;;;;0.53;0.30;;;31.60;26.20;;;;;;944511;148;27473;-79
2022/08/07 11:30:06;;;;;;;0.40;0.33;;;31.60;26.20;;;;;;930547;151;27355;-79
2022/08/07 11:32:51;;;;;;;1.10;0.53;;;31.50;26.00;;;;;;945236;148;27388;-79
2022/08/07 11:35:21;;;;;;;0.60;0.33;;;31.40;26.20;;;;;;911659;151;27406;-79
2022/08/07 11:38:09;;;;;;;3.83;0.65;;;31.20;26.20;;;;;;945608;148;27366;-78
2022/08/07 11:40:50;;;;;;;0.40;0.40;;;31.10;26.30;;;;;;929604;151;27417;-79
2022/08/07 11:43:25;;;;;;;0.57;0.45;;;31.00;26.30;;;;;;928137;151;27913;-79
2022/08/07 11:46:11;;;;;;;0.35;0.20;;;30.90;26.40;;;;;;923957;151;27379;-79
2022/08/07 11:48:56;;;;;;;0.35;0.30;;;30.70;26.70;;;;;;927631;151;27365;-79
2022/08/07 11:51:42;;;;;;;0.42;0.42;;;30.60;26.80;;;;;;932383;151;27310;-79
2022/08/07 11:54:46;;;;;;;0.62;0.57;;;30.60;26.70;;;;;;928169;150;28173;-79
2022/08/07 11:57:37;;;;;;;1.27;0.30;;;30.60;26.90;;;;;;881602;157;27552;-80
2022/08/07 12:00:19;;;;;;;0.60;0.40;;;30.60;26.80;;;;;;913888;153;27912;-79
2022/08/07 12:03:22;;;;;;;0.20;0.20;;;30.60;26.80;;;;;;913171;153;27415;-79
2022/08/07 12:06:16;;;;;;;0.33;0.33;;;30.50;27.00;;;;;;892845;157;27427;-79
2022/08/07 12:08:58;;;;;;;0.47;0.30;;;30.50;27.00;;;;;;893941;157;27448;-79
2022/08/07 12:11:39;;;;;;;0.50;0.50;;;30.50;27.10;;;;;;914815;153;27313;-79
2022/08/07 12:14:15;;;;;;;0.72;0.30;;;30.50;27.20;;;;;;912389;153;27394;-80
2022/08/07 12:16:53;;;;;;;0.98;0.35;;;30.50;27.10;;;;;;912873;153;27418;-79
2022/08/07 12:19:25;;;;;;;1.02;0.33;;;30.50;27.30;;;;;;913399;153;27491;-79
2022/08/07 12:22:04;;;;;;;1.72;0.35;;;30.50;27.40;;;;;;913444;153;27394;-79
2022/08/07 12:24:39;;;;;;;0.30;0.30;;;30.50;27.50;;;;;;893082;157;27525;-79
2022/08/07 12:27:09;;;;;;;0.90;0.60;;;30.50;27.50;;;;;;914133;153;27508;-79
2022/08/07 12:29:38;;;;;;;0.95;0.40;;;30.50;27.50;;;;;;891877;157;27535;-79
2022/08/07 12:32:05;;;;;;;0.80;0.20;;;30.50;27.50;;;;;;893507;157;27432;-79
2022/08/07 12:34:31;;;;;;;0.40;0.40;;;30.50;27.50;;;;;;914485;153;27980;-79
2022/08/07 12:36:58;;;;;;;0.40;0.40;;;30.50;27.60;;;;;;915249;153;27392;-80
2022/08/07 12:39:24;;;;;;;2.33;0.40;;;30.50;27.60;;;;;;916022;153;27485;-80
2022/08/07 12:41:51;;;;;;;1.07;0.35;;;30.50;27.60;;;;;;900658;155;27592;-79
2022/08/07 12:44:18;;;;;;;0.85;0.42;;;30.40;27.50;;;;;;902729;155;27435;-79
2022/08/07 12:47:02;;;;;;;0.33;0.30;;;30.40;27.60;;;;;;902853;155;27531;-79
2022/08/07 12:49:50;;;;;;;0.28;0.28;;;30.40;27.70;;;;;;891544;157;27457;-79
2022/08/07 12:52:17;;;;;;;0.40;0.40;;;30.30;27.70;;;;;;928930;151;27522;-79
2022/08/07 12:54:52;;;;;;;0.33;0.33;;;30.30;27.80;;;;;;894589;157;27437;-79
2022/08/07 12:57:19;;;;;;;1.55;0.30;;;30.30;27.30;;;;;;946538;148;27454;-79
2022/08/07 12:59:45;;;;;;;0.75;0.47;;;30.30;27.80;;;;;;946349;148;27243;-79
2022/08/07 13:02:45;;;;;;;0.93;0.40;;;30.30;27.70;;;;;;947200;148;27333;-79
2022/08/07 13:05:30;;;;;;;0.60;0.45;;;30.30;27.70;;;;;;918980;153;27349;-80
2022/08/07 13:08:09;;;;;;;0.95;0.60;;;30.30;27.70;;;;;;920436;153;27380;-80
2022/08/07 13:11:06;;;;;;;0.42;0.40;;;30.30;27.70;;;;;;932120;151;27285;-80
2022/08/07 13:13:58;;;;;;;0.37;0.33;;;30.20;27.80;;;;;;914550;153;27440;-79
2022/08/07 13:16:30;;;;;;;0.88;0.30;;;30.30;27.80;;;;;;916695;152;27336;-80